sensor_id;sensor_type;location;lat;lon;timestamp;temperature;humidity
11824;DHT22;5969;50.780;7.726;2023-03-21T00:02:24;8.70;99.90
11824;DHT22;5969;50.780;7.726;2023-03-21T00:04:52;8.70;99.90
11824;DHT22;5969;50.780;7.726;2023-03-21T00:07:18;8.50;99.90
11824;DHT22;5969;50.780;7.726;2023-03-21T00:09:45;8.50;99.90
11824;DHT22;5969;50.780;7.726;2023-03-21T00:12:13;8.60;99.90
11824;DHT22;5969;50.780;7.726;2023-03-21T00:14:41;8.60;99.90
11824;DHT22;5969;50.780;7.726;2023-03-21T00:17:09;8.70;99.90
11824;DHT22;5969;50.780;7.726;2023-03-21T00:19:36;8.70;99.90
11824;DHT22;5969;50.780;7.726;2023-03-21T00:22:05;8.70;99.90
11824;DHT22;5969;50.780;7.726;2023-03-21T00:24:50;8.60;99.90
11824;DHT22;5969;50.780;7.726;2023-03-21T00:27:19;8.60;99.90
11824;DHT22;5969;50.780;7.726;2023-03-21T00:29:46;8.70;99.90
11824;DHT22;5969;50.780;7.726;2023-03-21T00:32:13;8.60;99.90
11824;DHT22;5969;50.780;7.726;2023-03-21T00:34:41;8.60;99.90
11824;DHT22;5969;50.780;7.726;2023-03-21T00:37:09;8.60;99.90
11824;DHT22;5969;50.780;7.726;2023-03-21T00:39:41;8.60;99.90
11824;DHT22;5969;50.780;7.726;2023-03-21T00:42:08;8.70;99.90
11824;DHT22;5969;50.780;7.726;2023-03-21T00:44:36;8.70;99.90
11824;DHT22;5969;50.780;7.726;2023-03-21T00:47:05;8.70;99.90
11824;DHT22;5969;50.780;7.726;2023-03-21T00:49:32;8.70;99.90
11824;DHT22;5969;50.780;7.726;2023-03-21T00:51:59;8.70;99.90
11824;DHT22;5969;50.780;7.726;2023-03-21T00:54:26;8.70;99.90
11824;DHT22;5969;50.780;7.726;2023-03-21T00:56:53;8.70;99.90
11824;DHT22;5969;50.780;7.726;2023-03-21T00:59:20;8.70;99.90
11824;DHT22;5969;50.780;7.726;2023-03-21T01:01:48;8.80;99.90
11824;DHT22;5969;50.780;7.726;2023-03-21T01:04:18;8.80;99.90
11824;DHT22;5969;50.780;7.726;2023-03-21T01:06:46;8.70;99.90
11824;DHT22;5969;50.780;7.726;2023-03-21T01:09:15;8.70;99.90
11824;DHT22;5969;50.780;7.726;2023-03-21T01:11:44;8.70;99.90
11824;DHT22;5969;50.780;7.726;2023-03-21T01:14:12;8.80;99.90
11824;DHT22;5969;50.780;7.726;2023-03-21T01:16:39;8.80;99.90
11824;DHT22;5969;50.780;7.726;2023-03-21T01:19:10;8.80;99.90
11824;DHT22;5969;50.780;7.726;2023-03-21T01:21:37;8.80;99.90
11824;DHT22;5969;50.780;7.726;2023-03-21T01:24:05;8.80;99.90
11824;DHT22;5969;50.780;7.726;2023-03-21T01:26:32;8.80;99.90
11824;DHT22;5969;50.780;7.726;2023-03-21T01:28:59;8.60;99.90
11824;DHT22;5969;50.780;7.726;2023-03-21T01:31:26;8.60;99.90
11824;DHT22;5969;50.780;7.726;2023-03-21T01:33:53;8.60;99.90
11824;DHT22;5969;50.780;7.726;2023-03-21T01:36:23;8.50;99.90
11824;DHT22;5969;50.780;7.726;2023-03-21T01:38:51;8.50;99.90
11824;DHT22;5969;50.780;7.726;2023-03-21T01:41:25;8.50;99.90
11824;DHT22;5969;50.780;7.726;2023-03-21T01:43:53;8.50;99.90
11824;DHT22;5969;50.780;7.726;2023-03-21T01:46:43;8.40;99.90
11824;DHT22;5969;50.780;7.726;2023-03-21T01:49:17;8.40;99.90
11824;DHT22;5969;50.780;7.726;2023-03-21T01:51:48;8.50;99.90
11824;DHT22;5969;50.780;7.726;2023-03-21T01:54:19;8.50;99.90
11824;DHT22;5969;50.780;7.726;2023-03-21T01:56:49;8.50;99.90
11824;DHT22;5969;50.780;7.726;2023-03-21T01:59:19;8.50;99.90
11824;DHT22;5969;50.780;7.726;2023-03-21T02:01:50;8.60;99.90
11824;DHT22;5969;50.780;7.726;2023-03-21T02:04:18;8.50;99.90
11824;DHT22;5969;50.780;7.726;2023-03-21T02:06:57;8.60;99.90
11824;DHT22;5969;50.780;7.726;2023-03-21T02:09:28;8.50;99.90
11824;DHT22;5969;50.780;7.726;2023-03-21T02:11:56;8.60;99.90
11824;DHT22;5969;50.780;7.726;2023-03-21T02:14:24;8.60;99.90
11824;DHT22;5969;50.780;7.726;2023-03-21T02:16:57;8.60;99.90
11824;DHT22;5969;50.780;7.726;2023-03-21T02:19:51;8.50;99.90
11824;DHT22;5969;50.780;7.726;2023-03-21T02:23:02;8.60;99.90
11824;DHT22;5969;50.780;7.726;2023-03-21T02:28:38;8.50;99.90
11824;DHT22;5969;50.780;7.726;2023-03-21T02:31:24;8.50;99.90
11824;DHT22;5969;50.780;7.726;2023-03-21T02:37:18;8.40;99.90
11824;DHT22;5969;50.780;7.726;2023-03-21T02:40:00;8.40;99.90
11824;DHT22;5969;50.780;7.726;2023-03-21T02:42:40;8.40;99.90
11824;DHT22;5969;50.780;7.726;2023-03-21T02:45:14;8.30;99.90
11824;DHT22;5969;50.780;7.726;2023-03-21T02:47:46;8.40;99.90
11824;DHT22;5969;50.780;7.726;2023-03-21T02:50:17;8.30;99.90
11824;DHT22;5969;50.780;7.726;2023-03-21T02:52:47;8.40;99.90
11824;DHT22;5969;50.780;7.726;2023-03-21T02:55:18;8.40;99.90
11824;DHT22;5969;50.780;7.726;2023-03-21T02:57:49;8.40;99.90
11824;DHT22;5969;50.780;7.726;2023-03-21T03:00:19;8.50;99.90
11824;DHT22;5969;50.780;7.726;2023-03-21T03:02:48;8.40;99.90
11824;DHT22;5969;50.780;7.726;2023-03-21T03:05:17;8.50;99.90
11824;DHT22;5969;50.780;7.726;2023-03-21T03:08:02;8.40;99.90
11824;DHT22;5969;50.780;7.726;2023-03-21T03:10:45;8.50;99.90
11824;DHT22;5969;50.780;7.726;2023-03-21T03:13:24;8.60;99.90
11824;DHT22;5969;50.780;7.726;2023-03-21T03:16:01;8.50;99.90
11824;DHT22;5969;50.780;7.726;2023-03-21T03:18:38;8.50;99.90
11824;DHT22;5969;50.780;7.726;2023-03-21T03:21:11;8.40;99.90
11824;DHT22;5969;50.780;7.726;2023-03-21T03:23:46;8.30;99.90
11824;DHT22;5969;50.780;7.726;2023-03-21T03:26:17;8.40;99.90
11824;DHT22;5969;50.780;7.726;2023-03-21T03:28:47;8.30;99.90
11824;DHT22;5969;50.780;7.726;2023-03-21T03:31:19;8.40;99.90
11824;DHT22;5969;50.780;7.726;2023-03-21T03:33:51;8.30;99.90
11824;DHT22;5969;50.780;7.726;2023-03-21T03:36:22;8.20;99.90
11824;DHT22;5969;50.780;7.726;2023-03-21T03:38:53;8.20;99.90
11824;DHT22;5969;50.780;7.726;2023-03-21T03:41:24;8.10;99.90
11824;DHT22;5969;50.780;7.726;2023-03-21T03:43:54;8.10;99.90
11824;DHT22;5969;50.780;7.726;2023-03-21T03:46:28;8.10;99.90
11824;DHT22;5969;50.780;7.726;2023-03-21T03:49:00;8.00;99.90
11824;DHT22;5969;50.780;7.726;2023-03-21T03:51:31;8.00;99.90
11824;DHT22;5969;50.780;7.726;2023-03-21T03:54:03;7.90;99.90
11824;DHT22;5969;50.780;7.726;2023-03-21T03:56:32;7.90;99.90
11824;DHT22;5969;50.780;7.726;2023-03-21T03:59:01;7.90;99.90
11824;DHT22;5969;50.780;7.726;2023-03-21T04:01:30;7.80;99.90
11824;DHT22;5969;50.780;7.726;2023-03-21T04:03:57;7.90;99.90
11824;DHT22;5969;50.780;7.726;2023-03-21T04:06:25;7.80;99.90
11824;DHT22;5969;50.780;7.726;2023-03-21T04:08:53;7.80;99.90
11824;DHT22;5969;50.780;7.726;2023-03-21T04:11:22;7.90;99.90
11824;DHT22;5969;50.780;7.726;2023-03-21T04:13:49;7.80;99.90
11824;DHT22;5969;50.780;7.726;2023-03-21T04:16:16;7.80;99.90
11824;DHT22;5969;50.780;7.726;2023-03-21T04:18:43;7.80;99.90
11824;DHT22;5969;50.780;7.726;2023-03-21T04:21:12;7.80;99.90
11824;DHT22;5969;50.780;7.726;2023-03-21T04:23:40;7.80;99.90
11824;DHT22;5969;50.780;7.726;2023-03-21T04:26:07;7.70;99.90
11824;DHT22;5969;50.780;7.726;2023-03-21T04:28:36;7.60;99.90
11824;DHT22;5969;50.780;7.726;2023-03-21T04:31:04;7.50;99.90
11824;DHT22;5969;50.780;7.726;2023-03-21T04:33:31;7.50;99.90
11824;DHT22;5969;50.780;7.726;2023-03-21T04:36:03;7.50;99.90
11824;DHT22;5969;50.780;7.726;2023-03-21T04:38:31;7.50;99.90
11824;DHT22;5969;50.780;7.726;2023-03-21T04:40:59;7.40;99.90
11824;DHT22;5969;50.780;7.726;2023-03-21T04:43:27;7.40;99.90
11824;DHT22;5969;50.780;7.726;2023-03-21T04:45:56;7.40;99.90
11824;DHT22;5969;50.780;7.726;2023-03-21T04:48:23;7.50;99.90
11824;DHT22;5969;50.780;7.726;2023-03-21T04:50:51;7.40;99.90
11824;DHT22;5969;50.780;7.726;2023-03-21T04:53:18;7.30;99.90
11824;DHT22;5969;50.780;7.726;2023-03-21T04:55:45;7.30;99.90
11824;DHT22;5969;50.780;7.726;2023-03-21T04:58:12;7.40;99.90
11824;DHT22;5969;50.780;7.726;2023-03-21T05:00:39;7.50;99.90
11824;DHT22;5969;50.780;7.726;2023-03-21T05:03:07;7.50;99.90
11824;DHT22;5969;50.780;7.726;2023-03-21T05:05:35;7.50;99.90
11824;DHT22;5969;50.780;7.726;2023-03-21T05:08:03;7.50;99.90
11824;DHT22;5969;50.780;7.726;2023-03-21T05:10:31;7.50;99.90
11824;DHT22;5969;50.780;7.726;2023-03-21T05:12:58;7.50;99.90
11824;DHT22;5969;50.780;7.726;2023-03-21T05:15:25;7.50;99.90
11824;DHT22;5969;50.780;7.726;2023-03-21T05:17:53;7.50;99.90
11824;DHT22;5969;50.780;7.726;2023-03-21T05:20:21;7.50;99.90
11824;DHT22;5969;50.780;7.726;2023-03-21T05:22:48;7.50;99.90
11824;DHT22;5969;50.780;7.726;2023-03-21T05:25:17;7.50;99.90
11824;DHT22;5969;50.780;7.726;2023-03-21T05:27:58;7.50;99.90
11824;DHT22;5969;50.780;7.726;2023-03-21T05:30:26;7.60;99.90
11824;DHT22;5969;50.780;7.726;2023-03-21T05:32:54;7.60;99.90
11824;DHT22;5969;50.780;7.726;2023-03-21T05:35:22;7.60;99.90
11824;DHT22;5969;50.780;7.726;2023-03-21T05:37:49;7.60;99.90
11824;DHT22;5969;50.780;7.726;2023-03-21T05:40:16;7.70;99.90
11824;DHT22;5969;50.780;7.726;2023-03-21T05:42:44;7.70;99.90
11824;DHT22;5969;50.780;7.726;2023-03-21T05:45:12;7.80;99.90
11824;DHT22;5969;50.780;7.726;2023-03-21T05:47:38;7.80;99.90
11824;DHT22;5969;50.780;7.726;2023-03-21T05:50:06;7.90;99.90
11824;DHT22;5969;50.780;7.726;2023-03-21T05:52:34;8.00;99.90
11824;DHT22;5969;50.780;7.726;2023-03-21T05:55:01;8.00;99.90
11824;DHT22;5969;50.780;7.726;2023-03-21T05:57:28;8.00;99.90
11824;DHT22;5969;50.780;7.726;2023-03-21T05:59:59;8.00;99.90
11824;DHT22;5969;50.780;7.726;2023-03-21T06:02:26;8.00;99.90
11824;DHT22;5969;50.780;7.726;2023-03-21T06:04:53;8.00;99.90
11824;DHT22;5969;50.780;7.726;2023-03-21T06:07:21;8.00;99.90
11824;DHT22;5969;50.780;7.726;2023-03-21T06:09:49;8.10;99.90
11824;DHT22;5969;50.780;7.726;2023-03-21T06:12:16;8.30;99.90
11824;DHT22;5969;50.780;7.726;2023-03-21T06:14:43;8.30;99.90
11824;DHT22;5969;50.780;7.726;2023-03-21T06:17:10;8.40;99.90
11824;DHT22;5969;50.780;7.726;2023-03-21T06:19:38;8.20;99.90
11824;DHT22;5969;50.780;7.726;2023-03-21T06:22:06;8.30;99.90
11824;DHT22;5969;50.780;7.726;2023-03-21T06:24:32;8.40;99.90
11824;DHT22;5969;50.780;7.726;2023-03-21T06:27:01;8.50;99.90
11824;DHT22;5969;50.780;7.726;2023-03-21T06:29:28;8.50;99.90
11824;DHT22;5969;50.780;7.726;2023-03-21T06:31:55;8.60;99.90
11824;DHT22;5969;50.780;7.726;2023-03-21T06:34:22;8.60;99.90
11824;DHT22;5969;50.780;7.726;2023-03-21T06:36:49;8.80;99.90
11824;DHT22;5969;50.780;7.726;2023-03-21T06:39:19;8.80;99.90
11824;DHT22;5969;50.780;7.726;2023-03-21T06:41:46;8.80;99.90
11824;DHT22;5969;50.780;7.726;2023-03-21T06:44:14;8.80;99.90
11824;DHT22;5969;50.780;7.726;2023-03-21T06:46:41;8.90;99.90
11824;DHT22;5969;50.780;7.726;2023-03-21T06:49:08;8.80;99.90
11824;DHT22;5969;50.780;7.726;2023-03-21T06:51:35;8.80;99.90
11824;DHT22;5969;50.780;7.726;2023-03-21T06:54:02;8.90;99.90
11824;DHT22;5969;50.780;7.726;2023-03-21T06:56:29;9.10;99.90
11824;DHT22;5969;50.780;7.726;2023-03-21T06:58:56;9.10;99.90
11824;DHT22;5969;50.780;7.726;2023-03-21T07:01:29;9.10;99.90
11824;DHT22;5969;50.780;7.726;2023-03-21T07:03:56;9.30;99.90
11824;DHT22;5969;50.780;7.726;2023-03-21T07:06:27;9.30;99.90
11824;DHT22;5969;50.780;7.726;2023-03-21T07:08:54;9.40;99.90
11824;DHT22;5969;50.780;7.726;2023-03-21T07:11:22;9.50;99.90
11824;DHT22;5969;50.780;7.726;2023-03-21T07:13:50;9.50;99.90
11824;DHT22;5969;50.780;7.726;2023-03-21T07:16:18;9.50;99.90
11824;DHT22;5969;50.780;7.726;2023-03-21T07:18:47;9.50;99.90
11824;DHT22;5969;50.780;7.726;2023-03-21T07:21:16;9.60;99.90
11824;DHT22;5969;50.780;7.726;2023-03-21T07:23:43;9.70;99.90
11824;DHT22;5969;50.780;7.726;2023-03-21T07:26:13;9.80;99.90
11824;DHT22;5969;50.780;7.726;2023-03-21T07:28:42;9.90;99.90
11824;DHT22;5969;50.780;7.726;2023-03-21T07:31:13;9.90;99.90
11824;DHT22;5969;50.780;7.726;2023-03-21T07:33:40;9.80;99.90
11824;DHT22;5969;50.780;7.726;2023-03-21T07:36:11;9.80;99.90
11824;DHT22;5969;50.780;7.726;2023-03-21T07:38:40;9.70;99.90
11824;DHT22;5969;50.780;7.726;2023-03-21T07:41:07;9.70;99.90
11824;DHT22;5969;50.780;7.726;2023-03-21T07:43:34;9.80;99.90
11824;DHT22;5969;50.780;7.726;2023-03-21T07:46:01;9.70;99.90
11824;DHT22;5969;50.780;7.726;2023-03-21T07:48:29;9.70;99.90
11824;DHT22;5969;50.780;7.726;2023-03-21T07:50:56;9.70;99.90
11824;DHT22;5969;50.780;7.726;2023-03-21T07:53:24;9.70;99.90
11824;DHT22;5969;50.780;7.726;2023-03-21T07:55:52;9.70;99.90
11824;DHT22;5969;50.780;7.726;2023-03-21T07:58:21;9.80;99.90
11824;DHT22;5969;50.780;7.726;2023-03-21T08:00:48;9.50;99.90
11824;DHT22;5969;50.780;7.726;2023-03-21T08:03:14;9.50;99.90
11824;DHT22;5969;50.780;7.726;2023-03-21T08:05:41;9.60;99.90
11824;DHT22;5969;50.780;7.726;2023-03-21T08:08:08;9.60;99.90
11824;DHT22;5969;50.780;7.726;2023-03-21T08:10:37;9.70;99.90
11824;DHT22;5969;50.780;7.726;2023-03-21T08:13:04;9.80;99.90
11824;DHT22;5969;50.780;7.726;2023-03-21T08:15:31;9.90;99.90
11824;DHT22;5969;50.780;7.726;2023-03-21T08:17:58;10.00;99.90
11824;DHT22;5969;50.780;7.726;2023-03-21T08:20:27;10.00;99.90
11824;DHT22;5969;50.780;7.726;2023-03-21T08:22:54;9.90;99.90
11824;DHT22;5969;50.780;7.726;2023-03-21T08:25:21;9.90;99.90
11824;DHT22;5969;50.780;7.726;2023-03-21T08:27:50;10.00;99.90
11824;DHT22;5969;50.780;7.726;2023-03-21T08:30:19;10.00;99.90
11824;DHT22;5969;50.780;7.726;2023-03-21T08:32:46;9.90;99.90
11824;DHT22;5969;50.780;7.726;2023-03-21T08:35:15;9.80;99.90
11824;DHT22;5969;50.780;7.726;2023-03-21T08:37:43;9.90;99.90
11824;DHT22;5969;50.780;7.726;2023-03-21T08:40:12;9.90;99.90
11824;DHT22;5969;50.780;7.726;2023-03-21T08:42:41;10.00;99.90
11824;DHT22;5969;50.780;7.726;2023-03-21T08:45:11;10.20;99.90
11824;DHT22;5969;50.780;7.726;2023-03-21T08:47:38;10.10;99.90
11824;DHT22;5969;50.780;7.726;2023-03-21T08:50:06;10.20;99.90
11824;DHT22;5969;50.780;7.726;2023-03-21T08:52:34;10.10;99.90
11824;DHT22;5969;50.780;7.726;2023-03-21T08:55:03;10.00;99.90
11824;DHT22;5969;50.780;7.726;2023-03-21T08:57:30;10.00;99.90
11824;DHT22;5969;50.780;7.726;2023-03-21T08:59:57;9.90;99.90
11824;DHT22;5969;50.780;7.726;2023-03-21T09:02:26;10.00;99.90
11824;DHT22;5969;50.780;7.726;2023-03-21T09:04:53;9.80;99.90
11824;DHT22;5969;50.780;7.726;2023-03-21T09:07:23;9.80;99.90
11824;DHT22;5969;50.780;7.726;2023-03-21T09:09:50;9.70;99.90
11824;DHT22;5969;50.780;7.726;2023-03-21T09:12:18;9.50;99.90
11824;DHT22;5969;50.780;7.726;2023-03-21T09:14:47;9.50;99.90
11824;DHT22;5969;50.780;7.726;2023-03-21T09:17:14;9.70;99.90
11824;DHT22;5969;50.780;7.726;2023-03-21T09:19:43;9.60;99.90
11824;DHT22;5969;50.780;7.726;2023-03-21T09:22:12;9.50;99.90
11824;DHT22;5969;50.780;7.726;2023-03-21T09:24:43;9.40;99.90
11824;DHT22;5969;50.780;7.726;2023-03-21T09:27:10;9.40;99.90
11824;DHT22;5969;50.780;7.726;2023-03-21T09:29:38;9.50;99.90
11824;DHT22;5969;50.780;7.726;2023-03-21T09:32:08;9.60;99.90
11824;DHT22;5969;50.780;7.726;2023-03-21T09:34:36;9.60;99.90
11824;DHT22;5969;50.780;7.726;2023-03-21T09:37:05;9.50;99.90
11824;DHT22;5969;50.780;7.726;2023-03-21T09:39:37;9.30;99.90
11824;DHT22;5969;50.780;7.726;2023-03-21T09:42:16;9.20;99.90
11824;DHT22;5969;50.780;7.726;2023-03-21T09:44:54;9.20;99.90
11824;DHT22;5969;50.780;7.726;2023-03-21T09:47:24;9.30;99.90
11824;DHT22;5969;50.780;7.726;2023-03-21T09:49:57;9.50;99.90
11824;DHT22;5969;50.780;7.726;2023-03-21T09:52:29;9.70;99.90
11824;DHT22;5969;50.780;7.726;2023-03-21T09:54:59;9.60;99.90
11824;DHT22;5969;50.780;7.726;2023-03-21T09:57:30;9.70;99.90
11824;DHT22;5969;50.780;7.726;2023-03-21T10:00:02;9.50;99.90
11824;DHT22;5969;50.780;7.726;2023-03-21T10:02:37;9.50;99.90
11824;DHT22;5969;50.780;7.726;2023-03-21T10:05:11;9.70;99.90
11824;DHT22;5969;50.780;7.726;2023-03-21T10:07:48;9.90;99.90
11824;DHT22;5969;50.780;7.726;2023-03-21T10:10:21;9.80;99.90
11824;DHT22;5969;50.780;7.726;2023-03-21T10:12:49;9.90;99.90
11824;DHT22;5969;50.780;7.726;2023-03-21T10:15:20;10.00;99.90
11824;DHT22;5969;50.780;7.726;2023-03-21T10:17:52;9.80;99.90
11824;DHT22;5969;50.780;7.726;2023-03-21T10:20:22;9.90;99.90
11824;DHT22;5969;50.780;7.726;2023-03-21T10:22:52;9.70;99.90
11824;DHT22;5969;50.780;7.726;2023-03-21T10:25:23;9.50;99.90
11824;DHT22;5969;50.780;7.726;2023-03-21T10:27:51;9.50;99.90
11824;DHT22;5969;50.780;7.726;2023-03-21T10:30:25;9.70;99.90
11824;DHT22;5969;50.780;7.726;2023-03-21T10:32:55;9.90;99.90
11824;DHT22;5969;50.780;7.726;2023-03-21T10:35:23;10.10;99.90
11824;DHT22;5969;50.780;7.726;2023-03-21T10:37:52;10.20;99.90
11824;DHT22;5969;50.780;7.726;2023-03-21T10:40:19;10.30;99.90
11824;DHT22;5969;50.780;7.726;2023-03-21T10:42:46;10.40;99.90
11824;DHT22;5969;50.780;7.726;2023-03-21T10:45:17;10.40;99.90
11824;DHT22;5969;50.780;7.726;2023-03-21T10:47:47;10.50;99.90
11824;DHT22;5969;50.780;7.726;2023-03-21T10:50:16;10.20;99.90
11824;DHT22;5969;50.780;7.726;2023-03-21T10:52:55;10.30;99.90
11824;DHT22;5969;50.780;7.726;2023-03-21T10:55:26;10.60;99.90
11824;DHT22;5969;50.780;7.726;2023-03-21T10:57:58;10.50;99.90
11824;DHT22;5969;50.780;7.726;2023-03-21T11:00:33;10.60;99.90
11824;DHT22;5969;50.780;7.726;2023-03-21T11:03:01;10.70;99.90
11824;DHT22;5969;50.780;7.726;2023-03-21T11:05:36;10.30;99.90
11824;DHT22;5969;50.780;7.726;2023-03-21T11:08:10;10.40;99.90
11824;DHT22;5969;50.780;7.726;2023-03-21T11:10:53;10.30;99.90
11824;DHT22;5969;50.780;7.726;2023-03-21T11:13:24;10.20;99.90
11824;DHT22;5969;50.780;7.726;2023-03-21T11:15:53;10.20;99.90
11824;DHT22;5969;50.780;7.726;2023-03-21T11:18:25;10.40;99.90
11824;DHT22;5969;50.780;7.726;2023-03-21T11:20:54;10.50;99.90
11824;DHT22;5969;50.780;7.726;2023-03-21T11:23:25;10.10;99.90
11824;DHT22;5969;50.780;7.726;2023-03-21T11:25:53;10.10;99.90
11824;DHT22;5969;50.780;7.726;2023-03-21T11:28:22;10.10;99.90
11824;DHT22;5969;50.780;7.726;2023-03-21T11:30:55;10.10;99.90
11824;DHT22;5969;50.780;7.726;2023-03-21T11:33:26;10.10;99.90
11824;DHT22;5969;50.780;7.726;2023-03-21T11:36:03;10.00;99.90
11824;DHT22;5969;50.780;7.726;2023-03-21T11:38:35;9.80;99.90
11824;DHT22;5969;50.780;7.726;2023-03-21T11:41:03;9.70;99.90
11824;DHT22;5969;50.780;7.726;2023-03-21T11:43:34;9.80;99.90
11824;DHT22;5969;50.780;7.726;2023-03-21T11:46:06;9.90;99.90
11824;DHT22;5969;50.780;7.726;2023-03-21T11:48:38;10.00;99.90
11824;DHT22;5969;50.780;7.726;2023-03-21T11:51:14;9.90;99.90
11824;DHT22;5969;50.780;7.726;2023-03-21T11:53:48;10.00;99.90
11824;DHT22;5969;50.780;7.726;2023-03-21T11:56:24;10.10;99.90
11824;DHT22;5969;50.780;7.726;2023-03-21T12:01:50;10.00;99.90
11824;DHT22;5969;50.780;7.726;2023-03-21T12:04:33;9.70;99.90
11824;DHT22;5969;50.780;7.726;2023-03-21T12:07:11;9.70;99.90
11824;DHT22;5969;50.780;7.726;2023-03-21T12:09:50;9.40;99.90
11824;DHT22;5969;50.780;7.726;2023-03-21T12:12:28;9.40;99.90
11824;DHT22;5969;50.780;7.726;2023-03-21T12:15:01;9.50;99.90
11824;DHT22;5969;50.780;7.726;2023-03-21T12:17:37;9.50;99.90
11824;DHT22;5969;50.780;7.726;2023-03-21T12:20:20;9.60;99.90
11824;DHT22;5969;50.780;7.726;2023-03-21T12:22:56;9.80;99.90
11824;DHT22;5969;50.780;7.726;2023-03-21T12:25:32;9.80;99.90
11824;DHT22;5969;50.780;7.726;2023-03-21T12:28:07;9.80;99.90
11824;DHT22;5969;50.780;7.726;2023-03-21T12:30:47;9.90;99.90
11824;DHT22;5969;50.780;7.726;2023-03-21T12:33:36;9.80;99.90
11824;DHT22;5969;50.780;7.726;2023-03-21T12:39:00;9.90;99.90
11824;DHT22;5969;50.780;7.726;2023-03-21T12:41:38;9.90;99.90
11824;DHT22;5969;50.780;7.726;2023-03-21T12:44:10;10.00;99.90
11824;DHT22;5969;50.780;7.726;2023-03-21T12:46:43;9.90;99.90
11824;DHT22;5969;50.780;7.726;2023-03-21T12:49:14;9.90;99.90
11824;DHT22;5969;50.780;7.726;2023-03-21T12:51:43;9.90;99.90
11824;DHT22;5969;50.780;7.726;2023-03-21T12:54:22;9.90;99.90
11824;DHT22;5969;50.780;7.726;2023-03-21T12:56:54;9.90;99.90
11824;DHT22;5969;50.780;7.726;2023-03-21T12:59:30;9.90;99.90
11824;DHT22;5969;50.780;7.726;2023-03-21T13:02:02;9.90;99.90
11824;DHT22;5969;50.780;7.726;2023-03-21T13:04:43;10.00;99.90
11824;DHT22;5969;50.780;7.726;2023-03-21T13:07:14;10.00;99.90
11824;DHT22;5969;50.780;7.726;2023-03-21T13:09:44;10.00;99.90
11824;DHT22;5969;50.780;7.726;2023-03-21T13:12:24;10.00;99.90
11824;DHT22;5969;50.780;7.726;2023-03-21T13:15:05;10.10;99.90
11824;DHT22;5969;50.780;7.726;2023-03-21T13:17:36;10.20;99.90
11824;DHT22;5969;50.780;7.726;2023-03-21T13:20:15;10.20;99.90
11824;DHT22;5969;50.780;7.726;2023-03-21T13:22:45;10.10;99.90
11824;DHT22;5969;50.780;7.726;2023-03-21T13:25:18;10.10;99.90
11824;DHT22;5969;50.780;7.726;2023-03-21T13:27:52;10.10;99.90
11824;DHT22;5969;50.780;7.726;2023-03-21T13:30:22;10.20;99.90
11824;DHT22;5969;50.780;7.726;2023-03-21T13:32:54;10.20;99.90
11824;DHT22;5969;50.780;7.726;2023-03-21T13:35:23;10.10;99.90
11824;DHT22;5969;50.780;7.726;2023-03-21T13:37:55;9.80;99.90
11824;DHT22;5969;50.780;7.726;2023-03-21T13:40:25;9.90;99.90
11824;DHT22;5969;50.780;7.726;2023-03-21T13:42:57;10.00;99.90
11824;DHT22;5969;50.780;7.726;2023-03-21T13:45:30;10.10;99.90
11824;DHT22;5969;50.780;7.726;2023-03-21T13:47:59;10.20;99.90
11824;DHT22;5969;50.780;7.726;2023-03-21T13:50:29;10.10;99.90
11824;DHT22;5969;50.780;7.726;2023-03-21T13:53:17;10.20;99.90
11824;DHT22;5969;50.780;7.726;2023-03-21T13:55:46;10.30;99.90
11824;DHT22;5969;50.780;7.726;2023-03-21T13:58:31;10.40;99.90
11824;DHT22;5969;50.780;7.726;2023-03-21T14:01:21;10.40;99.90
11824;DHT22;5969;50.780;7.726;2023-03-21T14:03:48;10.70;99.90
11824;DHT22;5969;50.780;7.726;2023-03-21T14:06:17;10.70;99.90
11824;DHT22;5969;50.780;7.726;2023-03-21T14:08:45;10.90;99.90
11824;DHT22;5969;50.780;7.726;2023-03-21T14:11:15;11.30;99.90
11824;DHT22;5969;50.780;7.726;2023-03-21T14:13:45;11.30;99.90
11824;DHT22;5969;50.780;7.726;2023-03-21T14:16:14;11.00;99.90
11824;DHT22;5969;50.780;7.726;2023-03-21T14:18:44;10.50;99.90
11824;DHT22;5969;50.780;7.726;2023-03-21T14:21:17;10.60;99.90
11824;DHT22;5969;50.780;7.726;2023-03-21T14:23:45;10.70;99.90
11824;DHT22;5969;50.780;7.726;2023-03-21T14:26:12;10.70;99.90
11824;DHT22;5969;50.780;7.726;2023-03-21T14:28:47;10.90;99.90
11824;DHT22;5969;50.780;7.726;2023-03-21T14:31:17;10.50;99.90
11824;DHT22;5969;50.780;7.726;2023-03-21T14:33:47;10.60;99.90
11824;DHT22;5969;50.780;7.726;2023-03-21T14:36:19;10.50;99.90
11824;DHT22;5969;50.780;7.726;2023-03-21T14:39:03;10.60;99.90
11824;DHT22;5969;50.780;7.726;2023-03-21T14:41:32;10.60;99.90
11824;DHT22;5969;50.780;7.726;2023-03-21T14:44:07;10.80;99.90
11824;DHT22;5969;50.780;7.726;2023-03-21T14:46:36;11.00;99.90
11824;DHT22;5969;50.780;7.726;2023-03-21T14:49:16;11.10;99.90
11824;DHT22;5969;50.780;7.726;2023-03-21T14:51:44;11.10;99.90
11824;DHT22;5969;50.780;7.726;2023-03-21T14:54:15;11.30;99.90
11824;DHT22;5969;50.780;7.726;2023-03-21T14:56:45;11.40;99.90
11824;DHT22;5969;50.780;7.726;2023-03-21T14:59:16;11.60;99.90
11824;DHT22;5969;50.780;7.726;2023-03-21T15:01:45;11.40;99.90
11824;DHT22;5969;50.780;7.726;2023-03-21T15:04:14;11.40;99.90
11824;DHT22;5969;50.780;7.726;2023-03-21T15:06:49;11.10;99.90
11824;DHT22;5969;50.780;7.726;2023-03-21T15:09:22;11.30;99.90
11824;DHT22;5969;50.780;7.726;2023-03-21T15:11:53;11.40;99.90
11824;DHT22;5969;50.780;7.726;2023-03-21T15:14:24;11.80;99.90
11824;DHT22;5969;50.780;7.726;2023-03-21T15:16:53;11.90;99.90
11824;DHT22;5969;50.780;7.726;2023-03-21T15:19:24;11.80;99.90
11824;DHT22;5969;50.780;7.726;2023-03-21T15:21:55;11.70;99.90
11824;DHT22;5969;50.780;7.726;2023-03-21T15:24:26;11.70;99.90
11824;DHT22;5969;50.780;7.726;2023-03-21T15:26:58;11.80;99.90
11824;DHT22;5969;50.780;7.726;2023-03-21T15:29:27;11.40;99.90
11824;DHT22;5969;50.780;7.726;2023-03-21T15:31:54;11.50;99.90
11824;DHT22;5969;50.780;7.726;2023-03-21T15:34:23;11.60;99.90
11824;DHT22;5969;50.780;7.726;2023-03-21T15:36:55;11.50;99.90
11824;DHT22;5969;50.780;7.726;2023-03-21T15:39:22;11.60;99.90
11824;DHT22;5969;50.780;7.726;2023-03-21T15:42:03;11.20;99.90
11824;DHT22;5969;50.780;7.726;2023-03-21T15:44:33;11.20;99.90
11824;DHT22;5969;50.780;7.726;2023-03-21T15:47:00;11.50;99.90
11824;DHT22;5969;50.780;7.726;2023-03-21T15:49:29;11.70;99.90
11824;DHT22;5969;50.780;7.726;2023-03-21T15:52:04;11.50;99.90
11824;DHT22;5969;50.780;7.726;2023-03-21T15:54:33;11.40;99.90
11824;DHT22;5969;50.780;7.726;2023-03-21T15:57:04;11.60;99.90
11824;DHT22;5969;50.780;7.726;2023-03-21T15:59:38;12.00;99.90
11824;DHT22;5969;50.780;7.726;2023-03-21T16:02:14;11.90;99.90
11824;DHT22;5969;50.780;7.726;2023-03-21T16:04:58;12.50;99.90
11824;DHT22;5969;50.780;7.726;2023-03-21T16:07:25;13.30;99.90
11824;DHT22;5969;50.780;7.726;2023-03-21T16:09:57;14.80;99.90
11824;DHT22;5969;50.780;7.726;2023-03-21T16:12:25;15.90;99.90
11824;DHT22;5969;50.780;7.726;2023-03-21T16:14:53;15.80;99.90
11824;DHT22;5969;50.780;7.726;2023-03-21T16:17:31;15.30;99.90
11824;DHT22;5969;50.780;7.726;2023-03-21T16:19:58;14.90;99.90
11824;DHT22;5969;50.780;7.726;2023-03-21T16:22:25;14.70;99.90
11824;DHT22;5969;50.780;7.726;2023-03-21T16:24:53;13.90;99.90
11824;DHT22;5969;50.780;7.726;2023-03-21T16:27:21;13.40;99.90
11824;DHT22;5969;50.780;7.726;2023-03-21T16:29:48;13.20;99.90
11824;DHT22;5969;50.780;7.726;2023-03-21T16:32:17;13.40;99.90